Latest Weather Observations for Melbourne Airport

IDV60901

Issued at 4:31 am EST Wednesday 17 July 2019 (issued every 10 minutes, with the page automatically refreshed every 10 minutes)

About weather observations | Map of Melbourne area stations | Latest observations for Melbourne area | Other Formats
Station Details ID: 086282 Name: MELBOURNE AIRPORT Lat: -37.67 Lon: 144.83 Height: 113.4 m
Data from the previous 72 hours. | See also: Recent months at Melbourne Airport
Date/Time
EST
Temp
°C
App
Temp
°C
Dew
Point
°C
Rel
Hum
%
Delta-T
°C
Wind Press
QNH
hPa
Press
MSL
hPa
Rain since
9am
mm
Dir  Spd
km/h
Gust
km/h
Spd
kts
Gust
kts
17/04:00am 8.8 8.1 6.9 88 0.9 CALM 0 0 0 0 1019.4 1019.6 0.2
17/03:30am 9.0 8.2 6.6 85 1.1 CALM 0 0 0 0 1020.0 1020.2 0.2
17/03:00am 9.3 7.4 6.5 83 1.3 SW 6 9 3 5 1020.4 1020.6 0.2
17/02:30am 9.2 7.3 6.9 85 1.1 NNW 6 7 3 4 1020.6 1020.8 0.2
17/02:00am 9.8 7.6 6.4 79 1.6 NNW 7 9 4 5 1021.1 1021.3 0.2
17/01:30am 9.8 7.6 6.1 78 1.7 W 7 9 4 5 1021.2 1021.4 0.2
17/01:00am 10.1 6.3 5.8 74 2.0 W 15 19 8 10 1021.3 1021.5 0.2
17/12:30am 10.1 6.0 6.2 77 1.8 WNW 17 24 9 13 1021.6 1021.8 0.2
17/12:00am 10.1 6.9 6.9 80 1.5 NW 13 17 7 9 1021.6 1021.8 0.2
 
Date/Time
EST
Temp
°C
App
Temp
°C
Dew
Point
°C
Rel
Hum
%
Delta-T
°C
Wind Press
QNH
hPa
Press
MSL
hPa
Rain since
9am
mm
Dir  Spd
km/h
Gust
km/h
Spd
kts
Gust
kts
16/11:30pm 9.9 5.5 7.4 84 1.2 WNW 20 30 11 16 1021.9 1022.1 0.2
16/11:00pm 10.1 6.2 7.2 82 1.4 NW 17 20 9 11 1022.3 1022.5 0.2
16/10:30pm 10.6 7.1 7.3 80 1.6 WNW 15 20 8 11 1022.3 1022.5 0.2
16/10:00pm 10.5 6.7 7.4 81 1.5 WNW 17 22 9 12 1022.5 1022.7 0.2
16/09:30pm 10.5 7.1 7.6 82 1.4 W 15 22 8 12 1022.6 1022.8 0.2
16/09:00pm 10.5 6.8 8.0 84 1.2 W 17 26 9 14 1022.8 1023.0 0.2
16/08:30pm 10.5 7.6 8.0 84 1.2 W 13 17 7 9 1022.8 1023.0 0.2
16/08:00pm 10.5 7.6 8.0 84 1.2 WSW 13 19 7 10 1022.9 1023.1 0.2
16/07:30pm 10.7 7.8 8.0 83 1.3 WSW 13 17 7 9 1022.8 1023.0 0.2
16/07:00pm 10.6 7.0 8.4 86 1.1 W 17 20 9 11 1022.7 1022.9 0.2
16/06:30pm 10.8 6.8 8.4 85 1.2 W 19 24 10 13 1022.5 1022.7 0.2
16/06:00pm 10.9 7.4 8.7 86 1.1 W 17 22 9 12 1022.2 1022.4 0.2
16/05:30pm 11.1 7.0 8.7 85 1.2 W 20 26 11 14 1022.3 1022.5 0.2
16/05:00pm 11.6 5.8 7.9 78 1.8 WSW 28 35 15 19 1022.1 1022.3 0.2
16/04:30pm 12.0 7.0 8.1 77 1.9 WSW 24 30 13 16 1022.1 1022.3 0.2
16/04:00pm 12.3 6.6 8.5 77 1.9 WSW 28 35 15 19 1022.1 1022.3 0.2
16/03:30pm 12.4 7.5 8.6 77 1.9 WSW 24 33 13 18 1022.1 1022.3 0.2
16/03:00pm 11.8 6.7 9.2 84 1.3 WSW 26 33 14 18 1022.3 1022.5 0.2
16/02:33pm 11.7 5.4 8.9 83 1.4 WSW 32 52 17 28 1022.2 1022.4 0.0
16/02:30pm 12.5 6.4 8.3 75 2.1 WSW 30 37 16 20 1022.2 1022.4 0.0
16/02:00pm 13.0 6.9 8.2 72 2.4 WSW 30 39 16 21 1022.0 1022.2 0.0
16/01:30pm 12.5 6.7 8.0 74 2.2 WSW 28 37 15 20 1022.2 1022.4 0.0
16/01:00pm 12.8 6.6 7.7 71 2.5 WSW 30 37 16 20 1022.3 1022.5 0.0
16/12:30pm 12.2 5.6 7.7 74 2.2 WSW 32 39 17 21 1022.8 1023.0 0.0
16/12:00pm 12.5 6.1 7.1 69 2.6 WSW 30 39 16 21 1023.0 1023.2 0.0
16/11:30am 12.3 6.9 8.0 75 2.1 WSW 26 33 14 18 1023.4 1023.6 0.0
16/11:00am 11.9 5.6 7.6 75 2.1 WSW 30 39 16 21 1023.6 1023.8 0.0
16/10:30am 11.2 5.0 7.9 80 1.6 SW 30 39 16 21 1023.8 1024.0 0.0
16/10:00am 10.9 6.8 8.0 82 1.4 WSW 19 26 10 14 1023.8 1024.0 0.0
16/09:30am 10.6 6.7 8.8 89 0.9 SW 19 22 10 12 1023.7 1023.9 0.0
16/09:00am 10.0 5.1 8.6 91 0.7 SW 24 30 13 16 1023.6 1023.8 1.8
16/08:30am 10.0 5.9 8.8 92 0.6 SW 20 30 11 16 1023.3 1023.5 1.6
16/08:00am 9.9 7.2 9.1 95 0.4 WSW 13 17 7 9 1023.0 1023.2 1.6
16/07:41am 10.0 7.3 9.0 93 0.5 W 13 17 7 9 1022.7 1022.9 1.6
16/07:30am 10.0 6.9 9.0 93 0.5 W 15 19 8 10 1022.6 1022.8 1.6
16/07:23am 10.0 6.9 9.0 93 0.5 W 15 19 8 10 1022.5 1022.7 1.6
16/07:00am 9.8 7.2 9.2 96 0.3 W 13 17 7 9 1022.5 1022.7 1.6
16/06:40am 9.8 7.2 9.2 96 0.3 W 13 15 7 8 1022.5 1022.7 1.4
16/06:30am 9.8 6.8 9.2 96 0.3 W 15 19 8 10 1022.4 1022.6 1.0
16/06:25am 9.8 6.8 9.2 96 0.3 W 15 19 8 10 1022.4 1022.6 1.0
16/06:00am 9.8 7.2 9.2 96 0.3 W 13 15 7 8 1022.3 1022.5 1.0
16/05:48am 9.8 7.6 9.2 96 0.3 WSW 11 15 6 8 1022.3 1022.5 1.0
16/05:30am 9.8 7.2 9.2 96 0.3 WSW 13 19 7 10 1022.2 1022.4 1.0
16/05:00am 9.8 8.5 9.2 96 0.3 W 6 9 3 5 1022.1 1022.3 1.0
16/04:30am 9.9 7.7 9.3 96 0.3 WSW 11 15 6 8 1022.2 1022.4 0.8
16/04:00am 9.9 8.1 9.5 97 0.2 SW 9 13 5 7 1022.5 1022.7 0.8
16/03:30am 10.1 7.9 9.3 95 0.4 WSW 11 15 6 8 1022.6 1022.8 0.8
16/03:26am 10.1 8.3 9.3 95 0.4 W 9 13 5 7 1022.6 1022.8 0.8
16/03:00am 10.0 8.8 9.6 97 0.2 WSW 6 9 3 5 1022.5 1022.7 0.8
16/02:30am 9.9 8.5 9.5 97 0.2 SW 7 9 4 5 1022.8 1023.0 0.6
16/02:00am 10.1 7.5 9.5 96 0.3 WSW 13 15 7 8 1022.9 1023.1 0.4
16/01:30am 10.4 6.6 9.2 92 0.6 SW 19 28 10 15 1023.0 1023.2 0.4
16/01:00am 10.3 7.7 9.5 95 0.4 SW 13 19 7 10 1023.1 1023.3 0.4
16/12:30am 10.5 7.9 9.5 93 0.5 WSW 13 19 7 10 1023.3 1023.5 0.2
16/12:00am 10.9 7.5 9.1 89 0.9 SW 17 24 9 13 1023.2 1023.4 0.0
 
Date/Time
EST
Temp
°C
App
Temp
°C
Dew
Point
°C
Rel
Hum
%
Delta-T
°C
Wind Press
QNH
hPa
Press
MSL
hPa
Rain since
9am
mm
Dir  Spd
km/h
Gust
km/h
Spd
kts
Gust
kts
15/11:30pm 10.8 7.6 9.8 93 0.5 SW 17 24 9 13 1023.2 1023.4 0.0
15/11:23pm 10.9 8.1 9.9 93 0.5 SW 15 24 8 13 1023.3 1023.5 0.0
15/11:00pm 11.0 9.3 10.0 93 0.5 SSW 9 19 5 10 1023.3 1023.5 0.0
15/10:30pm 11.3 8.4 9.7 90 0.8 SW 15 19 8 10 1023.4 1023.6 0.0
15/10:00pm 12.0 8.1 8.8 81 1.6 SW 19 33 10 18 1023.3 1023.5 0.0
15/09:30pm 12.1 8.6 8.7 80 1.7 WSW 17 24 9 13 1023.5 1023.7 0.0
15/09:00pm 12.3 7.5 8.7 79 1.8 WSW 24 33 13 18 1023.6 1023.8 0.0
15/08:30pm 12.3 8.8 8.7 79 1.8 SW 17 26 9 14 1023.5 1023.7 0.0
15/08:00pm 12.3 8.8 8.7 79 1.8 WSW 17 20 9 11 1023.4 1023.6 0.0
15/07:30pm 12.5 8.4 8.7 77 1.9 WSW 20 26 11 14 1023.0 1023.2 0.0
15/07:00pm 12.7 7.8 8.5 75 2.1 WSW 24 32 13 17 1022.5 1022.7 0.0
15/06:30pm 12.7 8.2 8.7 76 2.0 SW 22 30 12 16 1022.7 1022.9 0.0
15/06:00pm 12.9 7.2 8.5 74 2.2 WSW 28 37 15 20 1022.4 1022.6 0.0
15/05:30pm 13.0 8.9 8.6 74 2.2 WSW 20 30 11 16 1022.2 1022.4 0.0
15/05:00pm 12.9 8.8 8.7 75 2.1 WSW 20 32 11 17 1021.9 1022.1 0.0
15/04:30pm 13.0 8.8 8.4 73 2.3 WSW 20 28 11 15 1022.0 1022.2 0.0
15/04:00pm 13.3 8.0 8.5 72 2.4 WSW 26 37 14 20 1021.8 1022.0 0.0
15/03:30pm 13.1 8.9 8.1 71 2.5 WSW 20 28 11 15 1021.6 1021.8 0.0
15/03:00pm 13.0 7.9 7.7 70 2.6 WSW 24 33 13 18 1021.5 1021.7 0.0
15/02:30pm 12.9 7.7 7.4 69 2.7 WSW 24 33 13 18 1021.4 1021.6 0.0
15/02:00pm 12.4 6.4 7.0 69 2.6 SW 28 37 15 20 1021.7 1021.9 0.0
15/01:30pm 12.3 5.5 6.7 68 2.7 SW 32 39 17 21 1022.1 1022.3 0.0
15/01:00pm 12.4 6.0 7.0 69 2.6 SW 30 39 16 21 1022.2 1022.4 0.0
15/12:30pm 12.4 5.3 6.5 67 2.8 SW 33 41 18 22 1022.3 1022.5 0.0
15/12:00pm 11.9 4.8 6.2 68 2.7 SW 33 41 18 22 1022.7 1022.9 0.0
15/11:30am 11.9 5.3 6.2 68 2.7 SW 30 39 16 21 1022.7 1022.9 0.0
15/11:00am 12.1 6.4 6.6 69 2.6 SW 26 35 14 19 1023.0 1023.2 0.0
15/10:30am 11.0 6.0 6.5 74 2.1 SW 22 32 12 17 1023.1 1023.3 0.0
15/10:00am 9.7 5.7 6.5 80 1.5 WSW 17 24 9 13 1023.1 1023.3 0.0
15/09:30am 9.4 4.8 6.4 81 1.4 WSW 20 30 11 16 1023.0 1023.2 0.0
15/09:00am 8.9 3.9 6.3 84 1.2 WSW 22 30 12 16 1022.6 1022.8 1.2
15/08:30am 8.6 3.9 6.2 85 1.1 WSW 20 28 11 15 1022.3 1022.5 1.2
15/08:00am 8.3 3.7 6.3 87 0.9 SW 20 28 11 15 1021.8 1022.0 1.2
15/07:30am 7.7 2.6 5.9 88 0.8 WSW 22 32 12 17 1021.4 1021.6 1.2
15/07:00am 8.1 3.0 6.1 87 0.9 SW 22 30 12 16 1020.9 1021.1 1.2
15/06:30am 8.4 3.0 6.5 88 0.9 SW 24 33 13 18 1020.2 1020.4 1.2
15/06:00am 8.1 2.2 5.9 86 1.0 SW 26 33 14 18 1019.7 1019.9 1.2
15/05:30am 8.4 2.5 6.0 85 1.1 SW 26 33 14 18 1019.5 1019.7 1.2
15/05:00am 8.7 1.8 6.3 85 1.1 SW 32 41 17 22 1019.0 1019.2 1.2
15/04:30am 8.5 2.4 6.6 88 0.9 SW 28 35 15 19 1018.7 1018.9 1.2
15/04:00am 8.6 2.9 6.7 88 0.9 SW 26 33 14 18 1018.7 1018.9 1.2
15/03:30am 9.0 2.4 6.2 82 1.3 SW 30 37 16 20 1018.6 1018.8 1.2
15/03:00am 8.9 2.3 6.1 82 1.3 SW 30 41 16 22 1018.2 1018.3 1.2
15/02:30am 9.1 2.6 6.3 83 1.3 SW 30 39 16 21 1018.2 1018.3 1.2
15/02:00am 9.2 2.1 6.2 81 1.4 WSW 33 41 18 22 1017.8 1018.0 1.2
15/01:34am 9.3 2.8 6.5 83 1.3 WSW 30 48 16 26 1017.1 1017.3 1.2
15/01:30am 9.2 2.3 6.6 84 1.2 WSW 32 48 17 26 1017.0 1017.2 1.2
15/01:00am 9.0 2.3 7.3 89 0.8 SW 32 50 17 27 1016.8 1017.0 1.2
15/12:30am 9.2 2.9 7.3 88 0.9 SW 30 39 16 21 1016.6 1016.8 1.2
15/12:01am 9.8 1.2 6.4 79 1.6 SW 41 59 22 32 1016.3 1016.5 1.2
15/12:00am 9.7 0.7 6.5 80 1.5 SW 43 59 23 32 1016.3 1016.5 1.2
 
Date/Time
EST
Temp
°C
App
Temp
°C
Dew
Point
°C
Rel
Hum
%
Delta-T
°C
Wind Press
QNH
hPa
Press
MSL
hPa
Rain since
9am
mm
Dir  Spd
km/h
Gust
km/h
Spd
kts
Gust
kts
14/11:30pm 9.5 1.7 6.7 83 1.3 WSW 37 54 20 29 1016.1 1016.3 1.2
14/11:00pm 9.2 1.8 6.9 85 1.1 WSW 35 56 19 30 1016.3 1016.5 1.0
14/10:54pm 9.2 1.5 6.9 85 1.1 WSW 37 56 20 30 1016.4 1016.6 1.0
14/10:30pm 9.7 0.0 6.0 78 1.7 WSW 46 59 25 32 1016.2 1016.4 0.8
14/10:00pm 10.2 0.8 5.2 71 2.3 WSW 44 59 24 32 1016.2 1016.4 0.6
14/09:30pm 10.4 0.5 4.9 69 2.5 WSW 46 59 25 32 1016.1 1016.3 0.6
14/09:18pm 10.3 0.8 5.0 69 2.4 WSW 44 63 24 34 1016.1 1016.3 0.6
14/09:00pm 10.5 0.2 4.8 68 2.6 WSW 48 61 26 33 1016.3 1016.5 0.6
14/08:36pm 10.4 1.1 5.1 69 2.4 WSW 43 63 23 34 1016.3 1016.5 0.6
14/08:30pm 10.4 1.1 5.1 69 2.4 WSW 43 56 23 30 1016.5 1016.7 0.6
14/08:00pm 10.5 1.4 4.2 65 2.8 WSW 41 54 22 29 1016.1 1016.3 0.6
14/07:30pm 10.4 0.3 3.9 64 2.9 WSW 46 61 25 33 1016.1 1016.3 0.6
14/07:04pm 10.4 2.6 4.9 69 2.5 WSW 35 54 19 29 1015.9 1016.1 0.6
14/07:00pm 10.5 2.3 4.8 68 2.6 WSW 37 50 20 27 1016.0 1016.2 0.6
14/06:30pm 10.4 0.7 5.6 72 2.2 WSW 46 69 25 37 1016.3 1016.5 0.6
14/06:12pm 10.8 1.5 5.1 68 2.6 WSW 43 65 23 35 1016.3 1016.5 0.6
14/06:00pm 10.8 2.3 5.1 68 2.6 WSW 39 54 21 29 1016.4 1016.6 0.6
14/05:31pm 10.7 2.4 6.0 73 2.2 WSW 39 57 21 31 1016.4 1016.6 0.6
14/05:30pm 10.8 2.8 5.9 72 2.3 WSW 37 50 20 27 1016.4 1016.6 0.6
14/05:00pm 10.3 3.4 7.4 82 1.4 WSW 33 48 18 26 1016.2 1016.4 0.6
14/04:42pm 10.0 3.0 8.4 90 0.8 WSW 35 44 19 24 1016.4 1016.6 0.6
14/04:30pm 9.8 2.1 8.8 93 0.5 WSW 39 54 21 29 1016.3 1016.5 0.2
14/04:21pm 10.5 4.4 8.3 86 1.1 WSW 30 37 16 20 1016.3 1016.5 0.0
14/04:03pm 11.1 2.7 7.4 78 1.8 WSW 41 59 22 32 1016.0 1016.2 0.0
14/04:00pm 10.9 1.7 7.8 81 1.5 W 46 63 25 34 1016.0 1016.2 0.0
14/03:39pm 12.3 4.7 5.9 65 3.0 W 35 54 19 29 1015.8 1016.0 0.0
14/03:30pm 12.2 3.8 5.6 64 3.1 W 39 54 21 29 1015.8 1016.0 0.0
14/03:01pm 12.3 4.2 5.2 62 3.3 W 37 56 20 30 1015.8 1016.0 0.0
14/03:00pm 12.4 3.9 5.3 62 3.3 W 39 56 21 30 1015.9 1016.1 0.0
14/02:32pm 12.3 3.5 5.4 63 3.2 W 41 59 22 32 1016.4 1016.6 0.0
14/02:30pm 12.3 3.4 4.9 60 3.4 W 41 57 22 31 1016.4 1016.6 0.0
14/02:09pm 12.9 5.2 5.4 60 3.5 W 35 57 19 31 1016.6 1016.8 0.0
14/02:00pm 12.0 4.9 5.3 63 3.1 W 32 41 17 22 1016.8 1017.0 0.0
14/01:43pm 11.5 2.8 6.2 70 2.5 W 41 59 22 32 1017.1 1017.3 0.0
14/01:30pm 12.6 3.9 6.1 64 3.1 W 41 57 22 31 1017.4 1017.6 0.0
14/01:00pm 11.4 3.0 5.8 68 2.6 W 39 54 21 29 1017.9 1018.1 0.0
14/12:50pm 11.5 3.9 6.0 69 2.6 W 35 54 19 29 1018.1 1018.2 0.0
14/12:30pm 10.6 3.2 6.6 76 1.9 W 35 48 19 26 1018.6 1018.8 0.0
14/12:21pm 11.3 3.9 5.2 66 2.8 W 33 52 18 28 1018.7 1018.9 0.0
14/12:00pm 10.6 2.6 5.9 73 2.2 W 37 52 20 28 1019.0 1019.2 0.0
14/11:30am 11.4 2.4 4.3 61 3.2 W 41 54 22 29 1019.1 1019.3 0.0
14/11:21am 11.5 4.9 4.2 61 3.3 WNW 28 50 15 27 1019.1 1019.3 0.0
14/11:00am 9.8 3.3 4.9 71 2.2 NNW 28 37 15 20 1019.4 1019.6 0.0
14/10:30am 9.4 3.3 5.0 74 2.0 NNW 26 39 14 21 1020.4 1020.6 0.0
14/10:00am 9.3 4.2 4.3 71 2.2 NNW 20 28 11 15 1020.7 1020.9 0.0
14/09:30am 8.9 3.1 4.4 73 2.0 NW 24 35 13 19 1020.5 1020.7 0.0
14/09:00am 8.9 1.6 5.4 79 1.6 WNW 33 46 18 25 1020.2 1020.4 0.4
14/08:46am 9.4 2.1 4.5 71 2.2 WNW 32 43 17 23 1020.4 1020.6 0.4
14/08:30am 8.2 3.6 3.6 73 2.0 NW 17 24 9 13 1020.5 1020.7 0.4
14/08:00am 8.1 2.5 3.2 71 2.1 NNW 22 33 12 18 1020.4 1020.6 0.4
14/07:30am 8.0 3.3 3.1 71 2.1 NNW 17 22 9 12 1020.5 1020.7 0.4
14/07:00am 8.5 3.2 3.1 69 2.3 NNW 20 32 11 17 1020.3 1020.5 0.4
14/06:30am 8.1 3.1 3.4 72 2.0 NW 19 26 10 14 1020.3 1020.5 0.4
14/06:00am 7.8 2.2 3.4 74 1.9 WNW 22 35 12 19 1020.5 1020.7 0.4
14/05:30am 7.8 3.1 3.3 73 1.9 WNW 17 26 9 14 1020.7 1020.9 0.4
14/05:00am 7.2 2.8 2.6 72 1.9 NW 15 20 8 11 1021.0 1021.2 0.4

Latest Capital City Observations: Canberra | Sydney | Melbourne | Brisbane | Adelaide | Perth | Hobart | Darwin

Other formats

Comma delimited format used in spreadsheet applications
http://www.bom.gov.au/fwo/IDV60901/IDV60901.94866.axf

JavaScript Object Notation format (JSON) in row-major order
http://www.bom.gov.au/fwo/IDV60901/IDV60901.94866.json

Data quality

Most of these data are generated automatically and are frequently updated. Quality checks on data are not normally performed. It is possible for incorrect values to appear. Refer to information at About Latest Weather Observations and please check the disclaimer before using these data.